tititudorancea.com
Station Historical Data
Daily Summary for January 16, 2018 Units:  Metric    English   Both
« Previous Day
Next Day »
Daily Weekly Monthly Yearly Custom
  High: Low: Average:
Temperature: -17.8 °C 8.9 °C 17.8 °C
Dew Point: -17.8 °C 3.6 °C 8.1 °C
Humidity: Humidity % 20 % 62 %
Wind Speed: 0 km/h 2.3 km/h 9.3 km/h
Wind Gust: 0 km/h - -
Wind:- - SSW
Pressure: 0 hPa 1016.5 hPa -
Precipitation: 0 mm    
Historical Graphs
 
 
Ararat weather Find more about Weather in Ararat, AU


 



 


Tabular Data for January 16, 2018
Time Temperature Dew Point Pressure Wind Wind Speed Wind Gust Humidity Rainfall Rate (Hourly)
-17.8 °C -17.8 °C 0 hPa Calm     Humidity % 0 mm
00:04 11.8 °C 9.4 °C 1021.2 hPa North 11.4 km/h 18.5 km/h 85 % 0 mm
00:12 11.8 °C 9.3 °C 1021.2 hPa North 10.6 km/h 16.7 km/h 85 % 0 mm
00:20 11.6 °C 9.3 °C 1021.2 hPa South 10 km/h 18.5 km/h 86 % 0 mm
00:27 11.6 °C 9.3 °C 1020.9 hPa SSE 11.9 km/h 18.5 km/h 86 % 0 mm
00:44 11.6 °C 9.3 °C 1020.9 hPa SSE 10.8 km/h 18.5 km/h 86 % 0 mm
00:54 11.5 °C 9.2 °C 1020.9 hPa SSE 8.2 km/h 14.8 km/h 86 % 0 mm
01:10 11.2 °C 9.3 °C 1020.9 hPa SE 14 km/h 18.5 km/h 88 % 0 mm
01:20 11.8 °C 9.7 °C 1020.9 hPa SE 16.3 km/h 31.5 km/h 87 % 0 mm
01:29 12.2 °C 9.8 °C 1020.5 hPa North 15.4 km/h 20.4 km/h 85 % 0 mm
01:35 12.2 °C 9.6 °C 1020.5 hPa SSE 13.8 km/h 31.5 km/h 84 % 0 mm
01:42 12.1 °C 9.5 °C 1020.5 hPa SSE 16.7 km/h 24.1 km/h 84 % 0 mm
02:11 11.6 °C 9.3 °C 1020.2 hPa South 11.3 km/h 18.5 km/h 86 % 0 mm
02:20 11.3 °C 9.1 °C 1020.2 hPa South 7.9 km/h 16.7 km/h 86 % 0 mm
02:25 11.1 °C 9.1 °C 1019.9 hPa South 8.7 km/h 16.7 km/h 87 % 0 mm
02:32 10.9 °C 8.9 °C 1019.9 hPa South 9.5 km/h 13 km/h 87 % 0 mm
02:41 10.7 °C 8.8 °C 1019.9 hPa North 8 km/h 13 km/h 88 % 0 mm
02:48 10.6 °C 8.7 °C 1019.9 hPa South 9.5 km/h 13 km/h 88 % 0 mm
03:02 10.3 °C 8.6 °C 1019.9 hPa South 8.2 km/h 13 km/h 89 % 0 mm
03:15 10.1 °C 8.6 °C 1019.5 hPa South 9.8 km/h 11.1 km/h 90 % 0 mm
03:33 9.9 °C 8.3 °C 1019.5 hPa South 8.5 km/h 9.7 km/h 90 % 0 mm
03:43 9.8 °C 8.4 °C 1019.5 hPa North 13.2 km/h 18.5 km/h 91 % 0 mm
03:50 9.7 °C 8.3 °C 1019.5 hPa North 10.3 km/h 14.8 km/h 91 % 0 mm
04:02 9.7 °C 8.3 °C 1019.5 hPa South 11.9 km/h 18.5 km/h 91 % 0 mm
04:08 9.7 °C 8.4 °C 1019.5 hPa North 16.4 km/h 20.4 km/h 92 % 0 mm
04:21 9.6 °C 8.4 °C 1019.2 hPa South 12.9 km/h 20.4 km/h 92 % 0 mm
04:27 9.6 °C 8.3 °C 1019.5 hPa North 14 km/h 20.4 km/h 92 % 0 mm
04:32 9.5 °C 8.3 °C 1019.5 hPa North 10.6 km/h 20.4 km/h 92 % 0 mm
04:47 9.3 °C 8.1 °C 1019.5 hPa South 10.6 km/h 16.7 km/h 92 % 0 mm
05:00 9.2 °C 8.2 °C 1019.5 hPa South 12.2 km/h 16.7 km/h 93 % 0 mm
05:05 9.3 °C 8.2 °C 1019.5 hPa South 10 km/h 18.5 km/h 93 % 0 mm
05:17 9.2 °C 8.1 °C 1019.5 hPa South 10.1 km/h 14.8 km/h 93 % 0 mm
05:23 9.1 °C 8.1 °C 1019.5 hPa South 7.4 km/h 14.8 km/h 93 % 0 mm
05:32 9 °C 7.9 °C 1019.9 hPa North 8.5 km/h 14.8 km/h 93 % 0 mm
05:37 8.9 °C 7.9 °C 1019.9 hPa South 9.2 km/h 16.7 km/h 93 % 0 mm
05:48 8.9 °C 7.9 °C 1019.9 hPa North 9.2 km/h 13 km/h 93 % 0 mm
05:53 9 °C 7.9 °C 1019.9 hPa North 9.8 km/h 14.8 km/h 93 % 0 mm
05:59 9.1 °C 8 °C 1019.9 hPa North 6.3 km/h 11.1 km/h 93 % 0 mm
06:05 9.1 °C 8 °C 1019.9 hPa SSW 8.2 km/h 9.3 km/h 93 % 0 mm
06:10 9.1 °C 8.1 °C 1019.9 hPa North 7.4 km/h 11.1 km/h 93 % 0 mm
06:31 9.3 °C 8.3 °C 1019.9 hPa North 8.2 km/h 14.8 km/h 93 % 0 mm
06:38 9.3 °C 8.3 °C 1019.9 hPa North 5.3 km/h 5.6 km/h 93 % 0 mm
06:43 9.3 °C 8.3 °C 1019.9 hPa South 4.2 km/h 7.4 km/h 93 % 0 mm
06:49 9.4 °C 8.3 °C 1019.9 hPa SSW 7.6 km/h 11.1 km/h 93 % 0 mm
07:06 9.9 °C 8.7 °C 1020.5 hPa South 8.4 km/h 14.8 km/h 92 % 0 mm
07:35 10.7 °C 9.2 °C 1020.9 hPa SSW 6.4 km/h 16.7 km/h 90 % 0 mm
07:42 10.9 °C 9.4 °C 1020.9 hPa South 9 km/h 11.1 km/h 90 % 0 mm
07:46 11.1 °C 9.6 °C 1020.9 hPa South 6.6 km/h 11.1 km/h 90 % 0 mm
07:47 11.1 °C 9.6 °C 1020.9 hPa South 7.6 km/h 9.7 km/h 90 % 0 mm
07:48 11.2 °C 9.6 °C 1020.9 hPa South 8.5 km/h 14.8 km/h 90 % 0 mm
07:49 11.2 °C 9.4 °C 1020.9 hPa South 8.7 km/h 14.8 km/h 89 % 0 mm
07:50 11.2 °C 9.5 °C 1020.9 hPa South 10 km/h 14.8 km/h 89 % 0 mm
07:51 11.3 °C 9.6 °C 1020.9 hPa South 11.6 km/h 14.8 km/h 89 % 0 mm
07:52 11.3 °C 9.6 °C 1020.9 hPa South 7.1 km/h 14.8 km/h 89 % 0 mm
07:53 11.3 °C 9.6 °C 1020.9 hPa North 7.4 km/h 13 km/h 89 % 0 mm
08:01 11.6 °C 9.6 °C 1020.9 hPa North 3.5 km/h 7.4 km/h 88 % 0 mm
08:06 11.6 °C 9.6 °C 1020.9 hPa North 3.5 km/h 7.4 km/h 88 % 0 mm
08:07 11.8 °C 9.7 °C 1021.2 hPa South 6.9 km/h 11.1 km/h 87 % 0 mm
08:16 12.2 °C 10.1 °C 1021.2 hPa SSE 14.2 km/h 14.2 km/h 87 % 0 mm
08:21 12.4 °C 10.2 °C 1020.9 hPa SSE 7.7 km/h 13 km/h 86 % 0 mm
08:39 13 °C 10.6 °C 1021.2 hPa North 16.1 km/h 20.4 km/h 85 % 0 mm
08:47 13.3 °C 10.8 °C 1021.2 hPa South 2.3 km/h 14.8 km/h 85 % 0 mm
08:58 14 °C 11.2 °C 1021.2 hPa South 6.1 km/h 14.8 km/h 83 % 0 mm
09:06 14.6 °C 11.3 °C 1021.2 hPa SSW 11.1 km/h 14.8 km/h 81 % 0 mm
09:24 15.6 °C 11.4 °C 1021.2 hPa North 7.6 km/h 18.5 km/h 76 % 0 mm
09:40 16.3 °C 11.6 °C 1021.2 hPa South 7.4 km/h 12.9 km/h 74 % 0 mm
09:48 16.8 °C 11.5 °C 1021.2 hPa South 7.4 km/h 13 km/h 71 % 0 mm
09:56 17.4 °C 11.7 °C 1021.2 hPa SE 4 km/h 5.6 km/h 69 % 0 mm
10:15 18.4 °C 11 °C 1021.2 hPa SSE 2.4 km/h 7.4 km/h 62 % 0 mm
10:26 19.1 °C 10.8 °C 1020.9 hPa South 4 km/h 11.1 km/h 59 % 0 mm
10:51 20.6 °C 10.4 °C 1020.9 hPa South 8 km/h 9.3 km/h 52 % 0 mm
10:57 21.1 °C 10.8 °C 1020.9 hPa South 9.2 km/h 9.3 km/h 52 % 0 mm
11:03 21.7 °C 11.1 °C 1020.9 hPa South 5 km/h 9.3 km/h 51 % 0 mm
11:24 22.4 °C 10.6 °C 1020.9 hPa North 4.8 km/h 7.4 km/h 47 % 0 mm
11:30 23.1 °C 9.8 °C 1020.9 hPa South 7.6 km/h 11.1 km/h 43 % 0 mm
11:44 24.3 °C 9.8 °C 1020.5 hPa SSE 5.6 km/h 9.3 km/h 40 % 0 mm
11:50 24.9 °C 9.6 °C 1020.5 hPa SSE 8.9 km/h 14.8 km/h 38 % 0 mm
12:22 26.4 °C 8.4 °C 1019.9 hPa ESE 6.9 km/h 18.5 km/h 32 % 0 mm
12:29 26.8 °C 7.7 °C 1019.9 hPa ESE 3.1 km/h 5.6 km/h 30 % 0 mm
12:39 27.5 °C 7.3 °C 1019.9 hPa East 7.9 km/h 11.1 km/h 28 % 0 mm
12:47 27.1 °C 7 °C 1019.5 hPa SE 3.2 km/h 14.8 km/h 28 % 0 mm
12:54 27 °C 7.4 °C 1019.5 hPa SSE 9.3 km/h 12.9 km/h 29 % 0 mm
13:00 26.9 °C 7.3 °C 1019.5 hPa ESE 9.2 km/h 11.1 km/h 29 % 0 mm
13:06 27.2 °C 7.1 °C 1019.2 hPa SE 10.8 km/h 11.1 km/h 28 % 0 mm
13:12 27.5 °C 7.3 °C 1019.2 hPa SSE 10 km/h 18.5 km/h 28 % 0 mm
13:26 27.8 °C 7.6 °C 1018.8 hPa South 8.4 km/h 14.5 km/h 28 % 0 mm
13:33 27.6 °C 8.4 °C 1018.8 hPa SSE 9.7 km/h 14.8 km/h 30 % 0 mm
13:47 27.9 °C 6.1 °C 1018.8 hPa ESE 9.2 km/h 14.8 km/h 25 % 0 mm
13:55 28.3 °C 6.4 °C 1018.5 hPa SE 6.6 km/h 13 km/h 25 % 0 mm
14:01 28.5 °C 5.3 °C 1018.5 hPa South 5.8 km/h 14.8 km/h 23 % 0 mm
14:15 28.6 °C 6 °C 1018.5 hPa SSE 4 km/h 12.9 km/h 24 % 0 mm
14:27 28.6 °C 6.7 °C 1018.2 hPa SSE 10.6 km/h 14.8 km/h 25 % 0 mm
14:51 29.5 °C 4.9 °C 1017.8 hPa ESE 10.9 km/h 20.4 km/h 21 % 0 mm
15:19 29.4 °C 5.5 °C 1017.5 hPa SSE 14.2 km/h 14.2 km/h 22 % 0 mm
15:26 29.5 °C 4.9 °C 1017.5 hPa SSE 8 km/h 13 km/h 21 % 0 mm
15:33 29.5 °C 6.2 °C 1017.5 hPa South 9 km/h 19.3 km/h 23 % 0 mm
15:41 29.7 °C 5.1 °C 1017.2 hPa SE 5.8 km/h 8 km/h 21 % 0 mm
15:46 29.9 °C 4.6 °C 1017.2 hPa ESE 6.8 km/h 11.1 km/h 20 % 0 mm
15:54 30.2 °C 6.2 °C 1017.2 hPa SSW 11.3 km/h 14.8 km/h 22 % 0 mm
16:18 30.3 °C 5.5 °C 1016.8 hPa SE 16.4 km/h 24.1 km/h 21 % 0 mm
16:24 29.9 °C 5.2 °C 1016.8 hPa South 6.1 km/h 16.7 km/h 21 % 0 mm
16:29 30.1 °C 6 °C 1016.8 hPa South 6.6 km/h 11.1 km/h 22 % 0 mm
16:36 30.4 °C 5.6 °C 1016.8 hPa South 8.9 km/h 14.5 km/h 21 % 0 mm
16:49 30.2 °C 5.4 °C 1016.5 hPa SSE 12.6 km/h 18.5 km/h 21 % 0 mm
16:55 30.4 °C 5.6 °C 1016.5 hPa SSE 10.6 km/h 18.5 km/h 21 % 0 mm
17:51 29.5 °C 4.9 °C 1016.5 hPa SE 8.4 km/h 16.7 km/h 21 % 0 mm
18:04 29.2 °C 4.6 °C 1016.5 hPa SSE 13.5 km/h 25.9 km/h 21 % 0 mm
18:16 28.8 °C 3.6 °C 1016.5 hPa SE 18.2 km/h 27.8 km/h 20 % 0 mm
18:29 28.6 °C 4.8 °C 1016.8 hPa South 13.7 km/h 27.8 km/h 22 % 0 mm
18:37 28.4 °C 3.9 °C 1016.8 hPa SSE 18.5 km/h 31.5 km/h 21 % 0 mm
18:47 28.2 °C 4.4 °C 1016.8 hPa South 11.6 km/h 24.1 km/h 22 % 0 mm
18:53 28.1 °C 4.4 °C 1016.8 hPa SSE 17.4 km/h 22.2 km/h 22 % 0 mm
19:07 27.5 °C 4.5 °C 1016.8 hPa SE 15.1 km/h 27.8 km/h 23 % 0 mm
19:23 27.1 °C 5.3 °C 1017.2 hPa SSE 10.5 km/h 18.5 km/h 25 % 0 mm
20:04 25.8 °C 6.4 °C 1017.2 hPa SE 13.4 km/h 24.1 km/h 29 % 0 mm
20:21 24.9 °C 7.1 °C 1017.5 hPa SSE 7.9 km/h 12.9 km/h 32 % 0 mm
20:28 24.4 °C 7.6 °C 1017.5 hPa SE 11.3 km/h 18.5 km/h 34 % 0 mm
20:34 24.1 °C 8.1 °C 1017.5 hPa SE 12.6 km/h 27.8 km/h 36 % 0 mm
20:40 23.7 °C 8.2 °C 1017.5 hPa SSE 10.8 km/h 16.7 km/h 37 % 0 mm
20:46 23.2 °C 8.5 °C 1017.5 hPa SSE 9.7 km/h 16.7 km/h 39 % 0 mm
21:05 22.1 °C 8.6 °C 1017.5 hPa SSE 7.7 km/h 13 km/h 42 % 0 mm
21:12 21.6 °C 9.2 °C 1017.5 hPa South 6.4 km/h 18.5 km/h 45 % 0 mm
21:25 20.9 °C 9.5 °C 1017.8 hPa SSE 7.7 km/h 18.5 km/h 48 % 0 mm
21:49 19.7 °C 9.9 °C 1017.8 hPa SSE 9.5 km/h 14.8 km/h 53 % 0 mm
22:05 18.9 °C 10.2 °C 1018.2 hPa SSE 11.1 km/h 14.8 km/h 57 % 0 mm
23:03 16.7 °C 10.8 °C 1018.5 hPa North 7.1 km/h 9.3 km/h 68 % 0 mm
23:22 16.2 °C 10.9 °C 1018.2 hPa SSE 7.6 km/h 11.1 km/h 71 % 0 mm
23:39 16 °C 11.2 °C 1018.2 hPa SSE 8.4 km/h 11.1 km/h 73 % 0 mm
Ararat Weather
Compliments of Weather Underground - 1.25 mb
Click here to send mail.


ABOUT

Live weather data from Ararat, Victoria, Australia, 3377
Data uploaded from Cumulus every 5 minutes to Weather Underground.
This site then downloads the raw data for formatting and display.
Metric and imperial data can be displayed. Graphs and historical data available.
Includes Sun and Moon times and rain image live from BOM.

Check out Ararat Weather on Facebook, Twitter and Google +

Help support ongoing costs by checking out the ads





Follow @AraratWeather